Time;durP1;ratioP1;P1;durP2;ratioP2;P2;SDS_P1;SDS_P2;PMS_P1;PMS_P2;Temp;Humidity;BMP_temperature;BMP_pressure;BME280_temperature;BME280_humidity;BME280_pressure;Samples;Min_cycle;Max_cycle;Signal;HPM_P1;HPM_P2
2022/03/27 00:00:38;;;;;;;24.02;13.35;;;7.90;99.90;;;;;;4897812;29;20550;-83
2022/03/27 00:03:06;;;;;;;22.48;12.52;;;7.80;99.90;;;;;;4880858;29;20052;-84
2022/03/27 00:05:32;;;;;;;22.30;13.75;;;7.60;99.90;;;;;;4880988;29;20065;-84
2022/03/27 00:07:58;;;;;;;21.20;12.90;;;7.50;99.90;;;;;;4897230;29;20056;-83
2022/03/27 00:10:23;;;;;;;20.73;11.73;;;7.50;99.90;;;;;;4897317;29;20477;-83
2022/03/27 00:12:49;;;;;;;25.13;13.32;;;7.30;99.90;;;;;;4880879;29;20056;-83
2022/03/27 00:15:15;;;;;;;20.45;12.13;;;7.20;99.90;;;;;;4897394;29;20550;-83
2022/03/27 00:17:40;;;;;;;21.23;12.70;;;7.20;99.90;;;;;;4897275;29;20052;-84
2022/03/27 00:20:08;;;;;;;21.90;11.88;;;7.00;99.90;;;;;;4865204;29;20406;-83
2022/03/27 00:22:37;;;;;;;24.45;12.80;;;6.90;99.90;;;;;;4880494;29;20052;-85
2022/03/27 00:25:06;;;;;;;26.85;12.88;;;6.80;99.90;;;;;;4864284;29;20107;-84
2022/03/27 00:27:33;;;;;;;23.33;12.80;;;6.70;99.90;;;;;;4897198;29;20506;-84
2022/03/27 00:29:59;;;;;;;24.42;13.38;;;6.60;99.90;;;;;;4855494;29;20147;-83
2022/03/27 00:32:25;;;;;;;22.15;12.40;;;6.70;99.90;;;;;;4880376;29;20049;-84
2022/03/27 00:34:51;;;;;;;25.98;13.07;;;6.50;99.90;;;;;;4880385;29;20067;-84
2022/03/27 00:37:17;;;;;;;23.20;12.63;;;6.50;99.90;;;;;;4880362;29;20107;-84
2022/03/27 00:39:43;;;;;;;22.90;11.82;;;6.50;99.90;;;;;;4880684;29;20056;-83
2022/03/27 00:42:09;;;;;;;22.00;11.73;;;6.60;99.90;;;;;;4864805;29;20076;-83
2022/03/27 00:44:36;;;;;;;21.25;11.98;;;6.30;99.90;;;;;;4880434;29;20100;-83
2022/03/27 00:47:02;;;;;;;22.55;11.90;;;6.30;99.90;;;;;;4865022;29;20399;-83
2022/03/27 00:49:28;;;;;;;20.40;10.88;;;6.20;99.90;;;;;;4880477;29;20072;-83
2022/03/27 00:51:54;;;;;;;19.95;11.00;;;6.10;99.90;;;;;;4896062;29;20188;-83
2022/03/27 00:54:20;;;;;;;19.75;10.73;;;6.10;99.90;;;;;;4896560;29;20045;-83
2022/03/27 00:56:46;;;;;;;18.95;10.40;;;6.10;99.90;;;;;;4880098;29;20048;-83
2022/03/27 00:59:12;;;;;;;19.13;10.48;;;5.90;99.90;;;;;;4880193;29;20044;-83
2022/03/27 01:01:39;;;;;;;19.42;10.70;;;5.90;99.90;;;;;;4896672;29;20052;-84
2022/03/27 01:04:06;;;;;;;19.35;10.05;;;5.90;99.90;;;;;;4879942;29;20047;-83
2022/03/27 01:06:33;;;;;;;19.23;10.60;;;5.80;99.90;;;;;;4880363;29;20092;-84
2022/03/27 01:11:45;;;;;;;18.98;9.60;;;5.70;99.90;;;;;;4879599;29;20064;-83
2022/03/27 01:14:11;;;;;;;17.85;10.15;;;5.60;99.90;;;;;;4896690;29;20055;-83
2022/03/27 01:16:56;;;;;;;18.17;10.00;;;5.60;99.90;;;;;;4864651;29;20040;-83
2022/03/27 01:19:21;;;;;;;16.58;9.98;;;5.60;99.90;;;;;;4864534;29;20052;-83
2022/03/27 01:21:47;;;;;;;19.40;9.77;;;5.60;99.90;;;;;;4879879;29;20053;-83
2022/03/27 01:24:16;;;;;;;18.10;10.57;;;5.60;99.90;;;;;;4880191;29;20053;-83
2022/03/27 01:26:42;;;;;;;17.58;10.57;;;5.70;99.90;;;;;;4879296;29;20048;-83
2022/03/27 01:29:08;;;;;;;20.77;11.30;;;5.80;99.90;;;;;;4855223;29;20057;-83
2022/03/27 01:31:34;;;;;;;19.77;12.00;;;6.00;99.90;;;;;;4896607;29;20056;-84
2022/03/27 01:34:00;;;;;;;20.15;13.07;;;6.10;99.90;;;;;;4864482;29;20104;-83
2022/03/27 01:36:31;;;;;;;20.25;12.85;;;6.30;99.90;;;;;;4896837;29;20092;-83
2022/03/27 01:38:57;;;;;;;;;;;6.30;99.90;;;;;;4880354;29;20052;-82
2022/03/27 01:41:23;;;;;;;31.73;15.80;;;6.40;99.90;;;;;;4864405;29;19938;-83
2022/03/27 01:43:50;;;;;;;27.85;15.43;;;6.40;99.90;;;;;;4879998;29;20388;-83
2022/03/27 01:46:16;;;;;;;31.33;16.48;;;6.40;99.90;;;;;;4896324;29;20518;-83
2022/03/27 01:48:42;;;;;;;27.27;15.85;;;6.30;99.90;;;;;;4896376;29;20049;-83
2022/03/27 01:51:08;;;;;;;31.13;15.45;;;6.20;99.90;;;;;;4896010;29;20497;-83
2022/03/27 01:53:39;;;;;;;31.67;15.43;;;6.00;99.90;;;;;;4879928;29;20049;-83
2022/03/27 01:56:06;;;;;;;;;;;5.90;99.90;;;;;;4896614;29;20493;-83
2022/03/27 01:58:32;;;;;;;26.05;15.27;;;5.80;99.90;;;;;;4879761;29;19927;-83
2022/03/27 02:00:58;;;;;;;33.05;16.55;;;5.70;99.90;;;;;;4896209;29;20546;-83
2022/03/27 02:03:28;;;;;;;29.55;17.00;;;5.70;99.90;;;;;;4897450;29;20052;-83
2022/03/27 02:05:54;;;;;;;27.20;15.88;;;5.50;99.90;;;;;;4899770;29;20056;-83
2022/03/27 02:08:21;;;;;;;28.08;15.82;;;5.40;99.90;;;;;;4883259;29;20048;-83
2022/03/27 02:10:48;;;;;;;28.40;16.02;;;5.30;99.90;;;;;;4882952;29;20059;-83
2022/03/27 02:13:15;;;;;;;31.30;15.88;;;5.20;99.90;;;;;;4899484;29;20048;-83
2022/03/27 02:15:41;;;;;;;26.38;14.32;;;5.20;99.90;;;;;;4883028;29;20056;-83
2022/03/27 02:18:09;;;;;;;25.95;14.65;;;5.10;99.90;;;;;;4882711;29;20091;-84
2022/03/27 02:20:35;;;;;;;24.52;14.48;;;5.00;99.90;;;;;;4899174;29;20135;-84
2022/03/27 02:23:01;;;;;;;24.85;14.68;;;4.90;99.90;;;;;;4867287;29;20132;-83
2022/03/27 02:25:26;;;;;;;24.75;14.20;;;4.80;99.90;;;;;;4882484;29;20052;-83
2022/03/27 02:27:52;;;;;;;26.30;14.90;;;4.90;99.90;;;;;;4899203;29;20467;-83
2022/03/27 02:30:20;;;;;;;28.80;14.82;;;4.70;99.90;;;;;;4858206;29;20063;-83
2022/03/27 02:32:47;;;;;;;23.98;14.13;;;4.60;99.90;;;;;;4882470;29;20048;-83
2022/03/27 02:35:13;;;;;;;27.50;14.57;;;4.60;99.90;;;;;;4867117;29;20052;-83
2022/03/27 02:37:39;;;;;;;29.70;15.13;;;4.50;99.90;;;;;;4882341;29;20068;-83
2022/03/27 02:40:05;;;;;;;23.73;14.63;;;4.50;99.90;;;;;;4881984;29;20071;-83
2022/03/27 02:42:31;;;;;;;28.48;15.98;;;4.50;99.90;;;;;;4899097;29;20048;-83
2022/03/27 02:44:57;;;;;;;26.17;15.90;;;4.40;99.90;;;;;;4898995;29;20060;-83
2022/03/27 02:47:22;;;;;;;34.53;16.98;;;4.50;99.90;;;;;;4898909;29;20415;-83
2022/03/27 02:49:48;;;;;;;30.45;17.85;;;4.40;99.90;;;;;;4882148;29;20483;-83
2022/03/27 02:52:14;;;;;;;29.23;17.80;;;4.40;99.90;;;;;;4882353;29;20241;-83
2022/03/27 02:54:40;;;;;;;30.85;17.65;;;4.30;99.90;;;;;;4898795;29;20108;-84
2022/03/27 02:57:05;;;;;;;31.42;17.13;;;4.30;99.90;;;;;;4881103;29;20151;-83
2022/03/27 02:59:31;;;;;;;28.95;17.73;;;4.30;99.90;;;;;;4899153;29;20140;-83
2022/03/27 03:01:57;;;;;;;32.45;18.05;;;4.30;99.90;;;;;;4881844;29;20579;-83
2022/03/27 03:04:23;;;;;;;36.00;18.65;;;4.30;99.90;;;;;;4881994;29;20187;-83
2022/03/27 03:06:49;;;;;;;33.20;18.48;;;4.30;99.90;;;;;;4882143;29;20417;-83
2022/03/27 03:09:15;;;;;;;29.33;17.35;;;4.30;99.90;;;;;;4898629;29;20630;-83
2022/03/27 03:11:41;;;;;;;30.38;17.08;;;4.20;99.90;;;;;;4898524;29;20047;-83
2022/03/27 03:14:07;;;;;;;29.33;17.23;;;4.20;99.90;;;;;;4881752;29;20085;-83
2022/03/27 03:16:34;;;;;;;33.25;17.60;;;4.20;99.90;;;;;;4897970;29;20143;-83
2022/03/27 03:18:59;;;;;;;34.20;16.17;;;4.10;99.90;;;;;;4881694;29;20067;-83
2022/03/27 03:21:26;;;;;;;28.90;14.57;;;4.10;99.90;;;;;;4898380;29;20048;-83
2022/03/27 03:23:52;;;;;;;26.63;14.75;;;4.10;99.90;;;;;;4881624;29;20088;-83
2022/03/27 03:26:18;;;;;;;25.15;13.95;;;4.10;99.90;;;;;;4881108;29;20166;-83
2022/03/27 03:28:43;;;;;;;23.75;13.27;;;4.00;99.90;;;;;;4891216;29;20053;-82
2022/03/27 03:31:09;;;;;;;24.52;13.23;;;4.00;99.90;;;;;;4866504;29;20088;-83
2022/03/27 03:33:35;;;;;;;25.00;13.23;;;3.90;99.90;;;;;;4898055;29;20132;-83
2022/03/27 03:36:00;;;;;;;22.80;12.30;;;4.00;99.90;;;;;;4881412;29;20080;-83
2022/03/27 03:38:26;;;;;;;23.92;12.15;;;3.90;99.90;;;;;;4881628;29;20477;-82
2022/03/27 03:40:52;;;;;;;25.65;12.93;;;3.80;99.90;;;;;;4865864;29;20054;-83
2022/03/27 03:43:20;;;;;;;22.55;11.68;;;3.80;99.90;;;;;;4881451;29;20044;-83
2022/03/27 03:45:46;;;;;;;25.60;12.93;;;3.80;99.90;;;;;;4881270;29;20055;-83
2022/03/27 03:48:12;;;;;;;25.58;12.68;;;3.80;99.90;;;;;;4897771;29;20135;-83
2022/03/27 03:50:38;;;;;;;25.70;12.98;;;3.80;99.90;;;;;;4880868;29;20140;-83
2022/03/27 03:53:04;;;;;;;22.42;11.93;;;3.80;99.90;;;;;;4897982;29;20501;-83
2022/03/27 03:55:29;;;;;;;27.55;12.55;;;3.80;99.90;;;;;;4897944;29;20040;-83
2022/03/27 03:57:56;;;;;;;24.83;12.23;;;3.80;99.90;;;;;;4881005;29;20490;-83
2022/03/27 04:00:23;;;;;;;28.23;13.30;;;3.80;99.90;;;;;;4880439;29;20056;-83
2022/03/27 04:02:49;;;;;;;31.50;13.35;;;3.80;99.90;;;;;;4897595;29;20140;-83
2022/03/27 04:05:15;;;;;;;31.88;12.82;;;3.80;99.90;;;;;;4880483;29;20131;-83
2022/03/27 04:07:40;;;;;;;31.80;13.18;;;3.90;99.90;;;;;;4865616;29;20120;-83
2022/03/27 04:10:06;;;;;;;27.77;12.57;;;3.80;99.90;;;;;;4881205;29;20047;-83
2022/03/27 04:12:32;;;;;;;31.73;12.55;;;3.80;99.90;;;;;;4880586;29;20586;-84
2022/03/27 04:14:58;;;;;;;36.72;13.43;;;3.80;99.90;;;;;;4865451;29;20079;-83
2022/03/27 04:17:24;;;;;;;37.65;14.25;;;3.80;99.90;;;;;;4880183;29;20478;-83
2022/03/27 04:19:49;;;;;;;35.13;15.02;;;3.80;99.90;;;;;;4897211;29;20087;-83
2022/03/27 04:22:15;;;;;;;29.90;13.43;;;3.80;99.90;;;;;;4864427;29;20064;-84
2022/03/27 04:24:41;;;;;;;31.52;13.90;;;3.80;99.90;;;;;;4880551;29;20067;-83
2022/03/27 04:27:07;;;;;;;36.38;14.32;;;3.80;99.90;;;;;;4879081;29;20056;-84
2022/03/27 04:29:32;;;;;;;37.75;14.20;;;3.80;99.90;;;;;;4856140;29;20071;-83
2022/03/27 04:31:58;;;;;;;35.13;14.13;;;3.80;99.90;;;;;;4880682;29;20143;-83
2022/03/27 04:34:24;;;;;;;36.33;15.13;;;3.70;99.90;;;;;;4880733;29;20060;-82
2022/03/27 04:36:50;;;;;;;32.50;13.68;;;3.70;99.90;;;;;;4896875;29;20063;-83
2022/03/27 04:39:16;;;;;;;38.20;14.18;;;3.70;99.90;;;;;;4865177;29;20053;-83
2022/03/27 04:41:41;;;;;;;36.42;14.50;;;3.70;99.90;;;;;;4879923;29;20056;-83
2022/03/27 04:44:08;;;;;;;40.55;14.52;;;3.70;99.90;;;;;;4896994;29;20499;-83
2022/03/27 04:46:34;;;;;;;34.03;13.95;;;3.60;99.90;;;;;;4896920;29;20135;-83
2022/03/27 04:48:59;;;;;;;31.83;13.40;;;3.60;99.90;;;;;;4880302;29;20184;-83
2022/03/27 04:51:25;;;;;;;29.60;12.50;;;3.50;99.90;;;;;;4880215;29;20092;-83
2022/03/27 04:53:51;;;;;;;30.52;13.35;;;3.50;99.90;;;;;;4896670;29;20056;-83
2022/03/27 04:56:17;;;;;;;32.08;12.98;;;3.50;99.90;;;;;;4864685;29;20145;-83
2022/03/27 04:58:43;;;;;;;32.95;13.27;;;3.50;99.90;;;;;;4880040;29;20048;-83
2022/03/27 05:01:10;;;;;;;33.10;13.10;;;3.40;99.90;;;;;;4879999;29;20484;-83
2022/03/27 05:03:36;;;;;;;42.22;13.90;;;3.40;99.90;;;;;;4880222;29;20489;-83
2022/03/27 05:06:02;;;;;;;35.92;13.48;;;3.40;99.90;;;;;;4880252;29;20052;-83
2022/03/27 05:08:27;;;;;;;33.45;13.77;;;3.30;99.90;;;;;;4879648;29;20115;-83
2022/03/27 05:10:53;;;;;;;40.50;14.02;;;3.30;99.90;;;;;;4896458;29;20519;-83
2022/03/27 05:13:19;;;;;;;32.65;13.30;;;3.30;99.90;;;;;;4879644;29;20420;-83
2022/03/27 05:15:46;;;;;;;38.00;13.82;;;3.20;99.90;;;;;;4879422;29;20055;-83
2022/03/27 05:18:12;;;;;;;39.97;13.57;;;3.20;99.90;;;;;;4879904;29;20148;-83
2022/03/27 05:20:42;;;;;;;44.00;14.52;;;3.20;99.90;;;;;;4879750;29;20131;-84
2022/03/27 05:23:08;;;;;;;35.33;13.80;;;3.20;99.90;;;;;;4896348;29;20084;-83
2022/03/27 05:25:40;;;;;;;30.63;13.00;;;3.20;99.90;;;;;;4879838;29;20099;-83
2022/03/27 05:28:10;;;;;;;42.30;13.55;;;3.20;99.90;;;;;;4896764;29;20045;-84
2022/03/27 05:30:36;;;;;;;31.77;12.63;;;3.20;99.90;;;;;;4871557;29;20053;-83
2022/03/27 05:33:05;;;;;;;33.45;13.30;;;3.30;99.90;;;;;;4880055;29;20052;-84
2022/03/27 05:35:32;;;;;;;37.50;13.02;;;3.40;99.90;;;;;;4896488;29;20058;-83
2022/03/27 05:38:01;;;;;;;34.67;13.40;;;3.60;99.90;;;;;;4895765;29;20209;-83
2022/03/27 05:40:28;;;;;;;34.92;13.43;;;3.70;99.90;;;;;;4883732;29;20056;-83
2022/03/27 05:42:54;;;;;;;43.78;13.90;;;3.90;99.90;;;;;;4883510;29;20056;-83
2022/03/27 05:45:20;;;;;;;41.50;14.23;;;4.00;99.90;;;;;;4900120;29;20453;-83
2022/03/27 05:47:46;;;;;;;44.42;13.90;;;4.10;99.90;;;;;;4883524;29;20143;-83
2022/03/27 05:50:14;;;;;;;47.13;13.88;;;4.50;99.90;;;;;;4883048;29;20136;-84
2022/03/27 05:52:43;;;;;;;38.35;12.70;;;4.30;99.90;;;;;;4867936;29;20151;-84
2022/03/27 05:55:10;;;;;;;30.17;12.80;;;4.40;99.90;;;;;;4883324;29;20438;-84
2022/03/27 05:57:35;;;;;;;33.65;12.48;;;4.50;99.90;;;;;;4899809;29;20053;-84
2022/03/27 06:00:02;;;;;;;28.98;12.73;;;4.60;99.90;;;;;;4899955;29;20051;-83
2022/03/27 06:02:28;;;;;;;34.10;12.10;;;4.70;99.90;;;;;;4882898;29;20065;-83
2022/03/27 06:04:53;;;;;;;30.35;11.93;;;4.70;99.90;;;;;;4883077;29;20483;-83
2022/03/27 06:07:19;;;;;;;36.72;11.95;;;4.80;99.90;;;;;;4882751;29;20376;-83
2022/03/27 06:09:44;;;;;;;35.33;12.45;;;5.00;99.90;;;;;;4867766;29;20052;-84
2022/03/27 06:12:12;;;;;;;34.17;12.27;;;4.90;99.90;;;;;;4899649;29;20051;-84
2022/03/27 06:14:37;;;;;;;28.02;11.27;;;5.00;99.90;;;;;;4867645;29;20541;-84
2022/03/27 06:17:03;;;;;;;34.22;12.27;;;5.10;99.90;;;;;;4899613;29;20049;-84
2022/03/27 06:19:30;;;;;;;33.17;11.10;;;5.20;99.90;;;;;;4899953;29;20461;-84
2022/03/27 06:21:59;;;;;;;33.05;12.15;;;5.30;99.90;;;;;;4866863;29;20051;-84
2022/03/27 06:24:26;;;;;;;32.92;12.65;;;5.40;99.90;;;;;;4882617;29;20100;-84
2022/03/27 06:26:52;;;;;;;30.00;11.68;;;5.40;99.90;;;;;;4899428;29;20068;-84
2022/03/27 06:29:20;;;;;;;34.85;11.35;;;5.50;99.90;;;;;;4841699;29;20147;-83
2022/03/27 06:31:46;;;;;;;30.60;12.15;;;5.50;99.90;;;;;;4882703;29;20048;-84
2022/03/27 06:34:12;;;;;;;36.05;13.93;;;5.60;99.90;;;;;;4867037;29;20427;-84
2022/03/27 06:36:38;;;;;;;42.10;14.98;;;5.70;99.90;;;;;;4898951;29;20044;-84
2022/03/27 06:39:05;;;;;;;42.08;14.65;;;5.70;99.90;;;;;;4882540;29;20056;-84
2022/03/27 06:41:30;;;;;;;39.88;14.60;;;5.80;99.90;;;;;;4882289;29;20040;-84
2022/03/27 06:43:56;;;;;;;36.38;13.27;;;5.90;99.90;;;;;;4899179;29;20048;-83
2022/03/27 06:46:22;;;;;;;46.92;14.02;;;5.90;99.90;;;;;;4898913;29;20052;-84
2022/03/27 06:48:49;;;;;;;52.33;17.73;;;6.00;99.90;;;;;;4898825;29;20139;-84
2022/03/27 06:51:16;;;;;;;53.50;16.60;;;6.10;99.90;;;;;;4880993;29;20112;-83
2022/03/27 06:53:43;;;;;;;46.72;18.17;;;6.10;99.90;;;;;;4882224;29;20423;-83
2022/03/27 06:56:09;;;;;;;46.10;18.33;;;6.30;99.90;;;;;;4866769;29;20053;-83
2022/03/27 06:58:35;;;;;;;37.10;15.10;;;6.50;99.90;;;;;;4898894;29;20053;-83
2022/03/27 07:03:45;;;;;;;46.33;15.13;;;6.70;99.90;;;;;;4881055;29;20056;-84
2022/03/27 07:06:11;;;;;;;46.25;14.88;;;6.90;99.90;;;;;;4881363;29;20399;-84
2022/03/27 07:08:37;;;;;;;42.50;15.52;;;7.00;99.90;;;;;;4880903;29;20183;-84
2022/03/27 07:11:03;;;;;;;46.92;15.77;;;7.20;99.90;;;;;;4881159;29;20052;-84
2022/03/27 07:13:30;;;;;;;38.50;14.40;;;7.20;99.90;;;;;;4881526;29;20052;-84
2022/03/27 07:15:57;;;;;;;43.88;15.13;;;7.40;99.90;;;;;;4898000;29;20071;-84
2022/03/27 07:18:23;;;;;;;42.42;15.52;;;7.50;99.90;;;;;;4898129;29;20056;-84
2022/03/27 07:20:49;;;;;;;37.03;13.77;;;7.70;99.90;;;;;;4881091;29;20704;-84
2022/03/27 07:23:17;;;;;;;47.95;15.13;;;7.80;99.90;;;;;;4880430;29;20062;-84
2022/03/27 07:25:47;;;;;;;48.53;15.55;;;7.90;99.90;;;;;;4880006;29;20061;-84
2022/03/27 07:28:14;;;;;;;47.42;15.27;;;8.00;99.90;;;;;;4896403;29;20120;-84
2022/03/27 07:30:41;;;;;;;40.33;13.38;;;8.30;99.90;;;;;;4846756;29;20051;-84
2022/03/27 07:33:07;;;;;;;49.33;14.73;;;8.30;99.90;;;;;;4871952;29;20065;-84
2022/03/27 07:35:34;;;;;;;54.13;13.55;;;8.40;99.90;;;;;;4890512;29;20593;-84
2022/03/27 07:38:01;;;;;;;39.67;11.80;;;8.60;99.90;;;;;;4880981;29;20068;-84
2022/03/27 07:40:27;;;;;;;40.13;14.18;;;8.90;99.90;;;;;;4898006;29;20120;-83
2022/03/27 07:42:54;;;;;;;37.42;12.00;;;8.90;99.90;;;;;;4896761;29;20112;-83
2022/03/27 07:45:22;;;;;;;44.35;13.35;;;8.90;99.90;;;;;;4878966;29;20052;-84
2022/03/27 07:47:49;;;;;;;41.63;13.15;;;9.10;99.90;;;;;;4864194;29;20063;-84
2022/03/27 07:50:17;;;;;;;40.05;12.98;;;9.10;99.90;;;;;;4879006;29;20155;-85
2022/03/27 07:52:43;;;;;;;38.95;12.80;;;9.10;99.90;;;;;;4879825;29;20399;-84
2022/03/27 07:55:11;;;;;;;57.40;14.43;;;9.10;99.90;;;;;;4879272;29;20132;-85
2022/03/27 07:57:37;;;;;;;41.45;13.25;;;9.10;99.90;;;;;;4878926;29;20424;-85
2022/03/27 08:00:04;;;;;;;39.40;12.70;;;9.10;99.90;;;;;;4879440;29;20056;-84
2022/03/27 08:02:30;;;;;;;45.70;13.05;;;8.90;99.90;;;;;;4879123;29;20111;-84
2022/03/27 08:04:57;;;;;;;44.42;13.70;;;8.90;99.90;;;;;;4896523;29;20459;-84
2022/03/27 08:07:22;;;;;;;43.58;13.10;;;8.80;99.90;;;;;;4879573;29;20143;-84
2022/03/27 08:09:48;;;;;;;43.83;11.55;;;8.70;99.90;;;;;;4863393;29;20140;-84
2022/03/27 08:12:14;;;;;;;41.35;13.20;;;8.80;99.90;;;;;;4879819;29;20044;-83
2022/03/27 08:14:40;;;;;;;39.08;12.23;;;8.90;99.90;;;;;;4864032;29;20055;-84
2022/03/27 08:17:06;;;;;;;42.22;12.20;;;9.00;99.90;;;;;;4896806;29;20135;-84
2022/03/27 08:19:33;;;;;;;39.15;12.73;;;9.20;99.90;;;;;;4864035;29;20071;-84
2022/03/27 08:21:59;;;;;;;47.83;13.27;;;9.50;99.90;;;;;;4864056;29;20123;-83
2022/03/27 08:24:24;;;;;;;42.90;13.40;;;9.40;99.90;;;;;;4879534;29;20059;-83
2022/03/27 08:26:57;;;;;;;45.88;12.10;;;9.50;99.90;;;;;;4878754;29;20060;-83
2022/03/27 08:29:29;;;;;;;39.95;11.88;;;9.80;99.90;;;;;;4879390;29;20123;-84
2022/03/27 08:31:55;;;;;;;36.38;11.48;;;10.30;99.90;;;;;;4895721;29;20123;-85
2022/03/27 08:34:23;;;;;;;36.83;11.25;;;10.80;99.90;;;;;;4895837;29;21395;-84
2022/03/27 08:36:49;;;;;;;40.33;11.95;;;11.30;99.90;;;;;;4896318;29;20045;-84
2022/03/27 08:39:15;;;;;;;35.60;11.23;;;11.60;99.90;;;;;;4895679;29;20048;-84
2022/03/27 08:41:46;;;;;;;37.78;10.45;;;11.80;99.90;;;;;;4863080;29;20051;-83
2022/03/27 08:44:12;;;;;;;;;;;11.80;99.90;;;;;;4904156;29;20115;-83
2022/03/27 08:46:40;;;;;;;43.42;10.30;;;11.70;99.90;;;;;;4883686;29;19922;-84
2022/03/27 08:49:33;;;;;;;38.88;10.30;;;11.50;99.90;;;;;;4899380;29;20044;-84
2022/03/27 08:52:08;;;;;;;42.35;10.23;;;11.20;99.90;;;;;;4899649;29;20150;-84
2022/03/27 08:54:58;;;;;;;42.35;10.55;;;10.90;99.90;;;;;;4883954;29;20055;-85
2022/03/27 08:57:48;;;;;;;33.92;10.00;;;10.90;99.90;;;;;;4899469;29;20059;-84
2022/03/27 09:00:14;;;;;;;41.10;10.13;;;11.10;99.90;;;;;;4899619;29;20048;-84
2022/03/27 09:02:41;;;;;;;37.47;9.68;;;11.70;99.90;;;;;;4899296;29;20059;-84
2022/03/27 09:05:07;;;;;;;33.88;9.15;;;12.80;99.90;;;;;;4899311;29;20087;-85
2022/03/27 09:07:33;;;;;;;25.90;8.98;;;13.90;99.90;;;;;;4916091;29;20534;-85
2022/03/27 09:10:03;;;;;;;33.35;9.30;;;15.00;99.90;;;;;;4915950;29;20131;-85
2022/03/27 09:12:30;;;;;;;32.30;9.60;;;16.10;99.90;;;;;;4899293;29;20527;-85
2022/03/27 09:14:56;;;;;;;30.88;7.30;;;17.00;99.90;;;;;;4903218;29;20578;-84
2022/03/27 09:17:22;;;;;;;28.15;7.25;;;17.60;99.90;;;;;;4903131;29;20510;-84
2022/03/27 09:19:49;;;;;;;27.88;7.80;;;18.20;98.60;;;;;;4903355;29;20114;-84
2022/03/27 09:22:19;;;;;;;28.98;7.85;;;18.70;95.60;;;;;;4902851;29;20086;-84
2022/03/27 09:24:48;;;;;;;30.52;8.10;;;19.40;90.80;;;;;;4918667;29;20056;-84
2022/03/27 09:27:27;;;;;;;29.08;8.35;;;19.90;82.00;;;;;;4919519;29;20139;-84
2022/03/27 09:30:10;;;;;;;29.83;8.35;;;20.20;73.60;;;;;;4902734;29;20275;-84
2022/03/27 09:32:38;;;;;;;24.20;7.65;;;20.50;67.70;;;;;;4903037;29;20048;-85
2022/03/27 09:35:12;;;;;;;23.40;7.05;;;20.60;68.40;;;;;;4902922;29;20420;-84
2022/03/27 09:37:41;;;;;;;30.55;7.82;;;20.70;66.90;;;;;;4903322;29;20059;-85
2022/03/27 09:40:10;;;;;;;24.20;7.38;;;21.20;64.40;;;;;;4903212;29;20379;-86
2022/03/27 09:42:37;;;;;;;26.42;7.07;;;21.50;60.60;;;;;;4902784;29;20095;-85
2022/03/27 09:45:23;;;;;;;21.90;7.50;;;21.80;57.50;;;;;;4902662;29;20549;-86
2022/03/27 09:47:52;;;;;;;27.77;6.97;;;21.80;54.80;;;;;;4887004;29;20054;-85
2022/03/27 09:50:38;;;;;;;23.67;6.63;;;21.90;55.60;;;;;;4902718;29;20044;-85
2022/03/27 09:53:28;;;;;;;25.48;6.93;;;22.30;52.50;;;;;;4887296;29;20059;-84
2022/03/27 09:55:59;;;;;;;23.23;7.03;;;22.50;51.90;;;;;;4902532;29;20139;-84
2022/03/27 09:58:44;;;;;;;24.65;7.53;;;22.70;53.60;;;;;;4902207;29;20689;-85
2022/03/27 10:01:14;;;;;;;31.00;7.53;;;23.00;51.90;;;;;;4902148;29;20502;-84
2022/03/27 10:04:03;;;;;;;25.58;6.30;;;23.20;50.80;;;;;;4902458;29;20080;-86
2022/03/27 10:06:38;;;;;;;27.90;6.70;;;23.50;50.10;;;;;;4902365;29;20062;-86
2022/03/27 10:09:13;;;;;;;27.10;6.60;;;23.80;48.80;;;;;;4886478;29;20088;-85
2022/03/27 10:11:41;;;;;;;25.35;7.10;;;23.90;47.30;;;;;;4919102;29;20494;-86
2022/03/27 10:14:07;;;;;;;25.08;7.35;;;23.80;47.00;;;;;;4886276;29;20087;-84
2022/03/27 10:16:36;;;;;;;25.55;7.50;;;23.40;46.90;;;;;;4902315;29;20060;-85
2022/03/27 10:19:13;;;;;;;26.30;7.25;;;23.20;47.40;;;;;;4902112;29;20403;-85
2022/03/27 10:21:43;;;;;;;25.45;6.80;;;23.30;46.20;;;;;;4902098;29;20047;-86
2022/03/27 10:24:12;;;;;;;24.80;7.38;;;23.30;47.20;;;;;;4902066;29;20056;-86
2022/03/27 10:26:39;;;;;;;23.70;6.18;;;23.50;47.10;;;;;;4901446;29;20056;-84
2022/03/27 10:29:06;;;;;;;26.25;6.53;;;23.90;46.10;;;;;;4886567;29;20052;-85
2022/03/27 10:31:32;;;;;;;28.60;7.00;;;24.00;45.40;;;;;;4918657;29;20410;-85
2022/03/27 10:34:00;;;;;;;26.08;6.57;;;24.30;45.20;;;;;;4918409;29;20048;-89
2022/03/27 10:36:47;;;;;;;25.50;6.50;;;24.50;44.30;;;;;;4865754;29;20064;-87
2022/03/27 10:39:32;;;;;;;26.92;6.57;;;24.70;43.70;;;;;;4898475;29;20144;-86
2022/03/27 10:42:11;;;;;;;24.75;5.90;;;25.10;43.20;;;;;;4878528;29;20048;-89
2022/03/27 10:44:58;;;;;;;25.63;6.30;;;25.30;42.50;;;;;;4884479;29;20399;-86
2022/03/27 10:47:25;;;;;;;22.35;6.18;;;25.40;42.80;;;;;;4882280;29;20124;-86
2022/03/27 10:50:06;;;;;;;23.30;6.40;;;25.60;41.90;;;;;;4914063;29;20131;-86
2022/03/27 10:52:50;;;;;;;21.83;6.20;;;25.60;41.30;;;;;;4882846;29;20053;-86
2022/03/27 10:55:16;;;;;;;24.80;6.18;;;25.60;40.10;;;;;;4898580;29;20143;-85
2022/03/27 10:57:49;;;;;;;20.15;5.70;;;25.50;41.10;;;;;;4897765;29;20057;-85
2022/03/27 11:00:35;;;;;;;21.10;5.97;;;25.60;40.80;;;;;;4898500;29;20064;-86
2022/03/27 11:03:01;;;;;;;25.90;6.45;;;25.70;40.90;;;;;;4882862;29;20059;-86
2022/03/27 11:05:32;;;;;;;21.52;5.70;;;25.90;40.70;;;;;;4882507;29;20053;-85
2022/03/27 11:08:16;;;;;;;19.88;5.80;;;26.20;39.30;;;;;;4898433;29;20171;-85
2022/03/27 11:10:50;;;;;;;22.58;5.88;;;26.10;39.00;;;;;;4898277;29;20060;-85
2022/03/27 11:13:39;;;;;;;21.63;5.57;;;26.10;39.40;;;;;;4899125;29;20049;-85
2022/03/27 11:16:05;;;;;;;24.33;5.60;;;26.40;37.80;;;;;;4897873;29;20063;-87
2022/03/27 11:18:37;;;;;;;23.02;5.53;;;26.40;39.10;;;;;;4898241;29;20060;-85
2022/03/27 11:21:04;;;;;;;19.60;5.50;;;26.60;38.70;;;;;;4897995;29;20057;-86
2022/03/27 11:23:32;;;;;;;24.80;5.70;;;26.80;38.10;;;;;;4897891;29;20052;-87
2022/03/27 11:26:00;;;;;;;22.33;5.97;;;26.80;38.00;;;;;;4904801;29;20510;-88
2022/03/27 11:28:43;;;;;;;21.42;6.13;;;27.00;37.40;;;;;;4900463;29;20056;-86
2022/03/27 11:31:08;;;;;;;22.70;5.53;;;27.20;35.60;;;;;;4900938;29;20048;-85
2022/03/27 11:33:35;;;;;;;23.67;5.70;;;27.30;36.00;;;;;;4885528;29;20558;-85
2022/03/27 11:36:09;;;;;;;20.15;5.45;;;27.30;36.30;;;;;;4900361;29;20537;-85
2022/03/27 11:38:44;;;;;;;19.33;5.20;;;27.30;36.30;;;;;;4900895;29;20402;-84
2022/03/27 11:41:31;;;;;;;18.30;5.47;;;27.40;36.40;;;;;;4900454;29;20040;-84
2022/03/27 11:44:16;;;;;;;23.40;5.60;;;27.50;35.60;;;;;;4900924;29;20047;-86
2022/03/27 11:46:44;;;;;;;20.15;5.32;;;27.30;35.80;;;;;;4900551;29;20056;-85
2022/03/27 11:49:11;;;;;;;20.00;5.43;;;27.30;36.70;;;;;;4884706;29;20087;-86
2022/03/27 11:51:37;;;;;;;21.73;5.18;;;27.40;36.30;;;;;;4917160;29;20052;-86
2022/03/27 11:54:19;;;;;;;22.98;5.97;;;27.50;35.30;;;;;;4900680;29;20066;-86
2022/03/27 11:56:59;;;;;;;18.80;4.72;;;27.60;35.30;;;;;;4900128;29;20052;-86
2022/03/27 11:59:28;;;;;;;14.82;4.97;;;27.60;35.00;;;;;;4900374;29;20060;-84
2022/03/27 12:01:57;;;;;;;16.77;4.80;;;27.70;35.30;;;;;;4877989;29;20140;-85
2022/03/27 12:04:23;;;;;;;18.88;5.10;;;27.90;35.70;;;;;;4881521;29;20059;-86
2022/03/27 12:06:56;;;;;;;26.05;5.72;;;28.00;35.30;;;;;;4881909;29;20059;-86
2022/03/27 12:09:26;;;;;;;24.42;5.90;;;28.30;34.90;;;;;;4881654;29;20050;-86
2022/03/27 12:12:05;;;;;;;15.97;4.47;;;28.50;34.60;;;;;;4898010;29;20049;-86
2022/03/27 12:14:30;;;;;;;19.27;5.55;;;28.60;34.00;;;;;;4881507;29;20300;-86
2022/03/27 12:16:56;;;;;;;17.60;5.13;;;28.50;34.50;;;;;;4881068;29;20063;-85
2022/03/27 12:19:22;;;;;;;19.02;4.88;;;28.70;33.90;;;;;;4881671;29;20369;-86
2022/03/27 12:21:47;;;;;;;18.83;5.20;;;28.80;33.80;;;;;;4897841;29;20420;-87
2022/03/27 12:24:16;;;;;;;19.92;5.13;;;28.90;33.60;;;;;;4865925;29;20056;-86
2022/03/27 12:29:42;;;;;;;20.10;5.28;;;29.00;33.00;;;;;;4862450;29;20052;-86
2022/03/27 12:32:13;;;;;;;19.45;5.13;;;29.20;32.80;;;;;;4847106;29;20096;-87
2022/03/27 12:34:44;;;;;;;19.95;4.90;;;29.40;33.30;;;;;;4847120;29;20381;-87
2022/03/27 12:37:21;;;;;;;20.05;5.63;;;29.40;32.70;;;;;;4847108;29;20516;-87
2022/03/27 12:39:49;;;;;;;19.80;5.13;;;29.40;32.50;;;;;;4862312;29;20404;-87
2022/03/27 12:42:47;;;;;;;20.52;5.80;;;29.10;32.70;;;;;;4861988;29;20407;-87
2022/03/27 12:45:32;;;;;;;18.48;5.00;;;29.10;32.30;;;;;;4846891;29;20061;-88
2022/03/27 12:48:14;;;;;;;19.75;4.95;;;29.10;33.20;;;;;;4846179;29;20440;-87
2022/03/27 12:50:42;;;;;;;22.25;5.47;;;29.30;33.10;;;;;;4862529;29;20408;-85
2022/03/27 12:53:08;;;;;;;18.30;5.22;;;29.40;32.90;;;;;;4846832;29;20053;-86